Time;durP1;ratioP1;P1;durP2;ratioP2;P2;SDS_P1;SDS_P2;PMS_P1;PMS_P2;Temp;Humidity;BMP_temperature;BMP_pressure;BME280_temperature;BME280_humidity;BME280_pressure;Samples;Min_cycle;Max_cycle;Signal;HPM_P1;HPM_P2
2020/12/27 00:02:15;;;;;;;4.30;2.42;;;;;;;;;;5074094;28;20097;-67
2020/12/27 00:04:42;;;;;;;5.28;2.42;;;;;;;;;;5074367;28;20477;-67
2020/12/27 00:07:09;;;;;;;3.20;2.00;;;;;;;;;;5074238;28;20480;-67
2020/12/27 00:09:38;;;;;;;4.03;2.50;;;;;;;;;;5073960;28;20099;-67
2020/12/27 00:12:05;;;;;;;4.63;2.55;;;;;;;;;;5074227;28;20485;-67
2020/12/27 00:14:32;;;;;;;4.10;2.42;;;;;;;;;;5056257;28;20503;-67
2020/12/27 00:17:03;;;;;;;4.90;2.40;;;;;;;;;;5073994;28;20103;-67
2020/12/27 00:19:29;;;;;;;;;;;;;;;;;;5074474;28;20537;-67
2020/12/27 00:21:56;;;;;;;3.42;1.90;;;;;;;;;;5046281;28;20004;-67
2020/12/27 00:24:22;;;;;;;3.40;1.73;;;;;;;;;;5033573;28;20034;-67
2020/12/27 00:26:48;;;;;;;4.43;2.25;;;;;;;;;;5033975;28;20512;-67
2020/12/27 00:29:14;;;;;;;7.15;3.05;;;;;;;;;;5033971;28;20025;-67
2020/12/27 00:31:40;;;;;;;4.88;2.63;;;;;;;;;;5033743;28;20092;-67
2020/12/27 00:34:06;;;;;;;7.35;3.15;;;;;;;;;;5034341;28;20017;-67
2020/12/27 00:36:33;;;;;;;4.88;2.40;;;;;;;;;;5034016;28;20099;-67
2020/12/27 00:38:59;;;;;;;4.50;2.40;;;;;;;;;;5033822;28;20021;-67
2020/12/27 00:41:25;;;;;;;5.70;2.50;;;;;;;;;;5033736;28;20486;-67
2020/12/27 00:43:52;;;;;;;6.35;2.88;;;;;;;;;;5033597;28;20033;-67
2020/12/27 00:46:19;;;;;;;4.20;2.70;;;;;;;;;;5033374;28;20101;-67
2020/12/27 00:48:45;;;;;;;3.05;2.15;;;;;;;;;;5032424;28;20716;-68
2020/12/27 00:51:11;;;;;;;4.75;2.35;;;;;;;;;;5033525;28;20669;-67
2020/12/27 00:53:38;;;;;;;5.25;2.40;;;;;;;;;;5033200;28;20025;-67
2020/12/27 00:56:04;;;;;;;4.05;2.15;;;;;;;;;;5033694;28;20052;-67
2020/12/27 00:58:31;;;;;;;3.63;2.10;;;;;;;;;;5033590;28;20386;-67
2020/12/27 01:00:58;;;;;;;4.18;2.13;;;;;;;;;;5033111;28;20033;-67
2020/12/27 01:03:25;;;;;;;5.25;2.53;;;;;;;;;;5033553;28;20043;-67
2020/12/27 01:05:51;;;;;;;7.15;4.10;;;;;;;;;;5033206;28;20101;-67
2020/12/27 01:08:18;;;;;;;6.72;3.70;;;;;;;;;;5032837;28;20040;-67
2020/12/27 01:10:44;;;;;;;7.45;3.90;;;;;;;;;;5033265;28;20093;-67
2020/12/27 01:13:10;;;;;;;7.57;4.25;;;;;;;;;;5033196;28;20821;-67
2020/12/27 01:15:38;;;;;;;12.27;6.55;;;;;;;;;;5032691;28;20053;-67
2020/12/27 01:18:05;;;;;;;6.60;3.97;;;;;;;;;;5033263;28;20025;-67
2020/12/27 01:20:31;;;;;;;3.90;1.83;;;;;;;;;;5033000;28;20478;-67
2020/12/27 01:22:58;;;;;;;5.88;2.70;;;;;;;;;;5062077;28;20520;-68
2020/12/27 01:25:24;;;;;;;7.65;2.88;;;;;;;;;;5072947;28;20020;-67
2020/12/27 01:27:50;;;;;;;4.35;2.60;;;;;;;;;;5072968;28;20032;-67
2020/12/27 01:30:16;;;;;;;3.70;2.15;;;;;;;;;;5072332;28;20055;-67
2020/12/27 01:32:42;;;;;;;4.85;2.10;;;;;;;;;;5072882;28;20039;-67
2020/12/27 01:35:09;;;;;;;4.32;1.90;;;;;;;;;;5072749;28;20639;-66
2020/12/27 01:37:35;;;;;;;5.22;2.08;;;;;;;;;;5072269;28;20099;-67
2020/12/27 01:40:01;;;;;;;3.80;1.70;;;;;;;;;;5072556;28;20035;-67
2020/12/27 01:42:27;;;;;;;4.65;1.92;;;;;;;;;;5072052;28;20029;-67
2020/12/27 01:44:54;;;;;;;3.22;2.08;;;;;;;;;;5072233;28;20025;-67
2020/12/27 01:47:21;;;;;;;4.07;1.60;;;;;;;;;;5072566;28;20363;-67
2020/12/27 01:49:47;;;;;;;6.45;2.17;;;;;;;;;;5072579;28;20023;-67
2020/12/27 01:52:13;;;;;;;2.92;1.83;;;;;;;;;;5054151;28;20385;-67
2020/12/27 01:54:39;;;;;;;4.22;2.35;;;;;;;;;;5072557;28;20469;-67
2020/12/27 01:57:12;;;;;;;4.78;2.10;;;;;;;;;;5072350;28;20108;-67
2020/12/27 01:59:38;;;;;;;3.75;2.28;;;;;;;;;;5072133;28;20074;-67
2020/12/27 02:02:05;;;;;;;5.03;1.85;;;;;;;;;;5072292;28;20028;-67
2020/12/27 02:04:31;;;;;;;4.13;1.92;;;;;;;;;;5072392;28;20075;-67
2020/12/27 02:06:58;;;;;;;2.75;1.60;;;;;;;;;;5072350;28;20079;-67
2020/12/27 02:09:24;;;;;;;3.40;1.80;;;;;;;;;;5072443;28;20056;-67
2020/12/27 02:12:07;;;;;;;3.72;1.80;;;;;;;;;;5072061;28;20074;-67
2020/12/27 02:14:33;;;;;;;6.80;1.67;;;;;;;;;;5072030;28;20381;-67
2020/12/27 02:16:59;;;;;;;3.72;2.03;;;;;;;;;;5072279;28;20056;-67
2020/12/27 02:19:25;;;;;;;2.80;1.60;;;;;;;;;;5072423;28;20021;-67
2020/12/27 02:21:51;;;;;;;3.03;1.55;;;;;;;;;;5071639;28;20549;-67
2020/12/27 02:24:17;;;;;;;3.97;1.92;;;;;;;;;;5072027;28;20025;-67
2020/12/27 02:27:13;;;;;;;3.78;1.90;;;;;;;;;;5072177;28;20120;-67
2020/12/27 02:29:39;;;;;;;3.63;1.73;;;;;;;;;;5054865;28;20044;-67
2020/12/27 02:32:05;;;;;;;4.35;1.40;;;;;;;;;;5072020;28;20564;-67
2020/12/27 02:34:31;;;;;;;3.63;1.90;;;;;;;;;;5072039;28;20027;-67
2020/12/27 02:36:57;;;;;;;2.70;1.60;;;;;;;;;;5071854;28;20040;-67
2020/12/27 02:39:23;;;;;;;3.38;1.58;;;;;;;;;;5072024;28;20020;-67
2020/12/27 02:41:51;;;;;;;2.38;1.25;;;;;;;;;;5071920;28;20385;-67
2020/12/27 02:44:17;;;;;;;3.00;1.50;;;;;;;;;;5071574;28;20017;-67
2020/12/27 02:46:43;;;;;;;2.53;1.20;;;;;;;;;;5071852;28;20423;-67
2020/12/27 02:49:09;;;;;;;2.13;1.35;;;;;;;;;;5071966;28;20025;-67
2020/12/27 02:51:35;;;;;;;2.95;1.50;;;;;;;;;;5071545;28;20029;-68
2020/12/27 02:54:01;;;;;;;4.97;1.55;;;;;;;;;;5073519;28;20036;-67
2020/12/27 02:56:28;;;;;;;4.07;1.40;;;;;;;;;;5075711;28;20027;-67
2020/12/27 02:58:56;;;;;;;2.95;1.10;;;;;;;;;;5075429;28;20029;-67
2020/12/27 03:01:22;;;;;;;2.67;1.23;;;;;;;;;;5075502;28;20494;-67
2020/12/27 03:03:49;;;;;;;2.40;1.20;;;;;;;;;;5075433;28;20020;-67
2020/12/27 03:06:15;;;;;;;1.83;0.80;;;;;;;;;;5075226;28;20025;-68
2020/12/27 03:08:41;;;;;;;1.77;0.77;;;;;;;;;;5075376;28;20526;-67
2020/12/27 03:11:08;;;;;;;2.88;1.10;;;;;;;;;;5075297;28;20059;-67
2020/12/27 03:13:34;;;;;;;1.45;0.90;;;;;;;;;;5074957;28;20036;-67
2020/12/27 03:16:01;;;;;;;1.90;1.02;;;;;;;;;;5075329;28;20032;-67
2020/12/27 03:18:28;;;;;;;2.85;1.33;;;;;;;;;;5075228;28;20049;-67
2020/12/27 03:20:54;;;;;;;2.65;1.17;;;;;;;;;;5074850;28;20082;-67
2020/12/27 03:23:20;;;;;;;1.75;0.90;;;;;;;;;;5074749;28;20131;-67
2020/12/27 03:25:47;;;;;;;1.60;0.77;;;;;;;;;;5075155;28;20025;-67
2020/12/27 03:28:13;;;;;;;1.80;1.13;;;;;;;;;;5074832;28;20035;-67
2020/12/27 03:30:39;;;;;;;3.20;1.55;;;;;;;;;;5075109;28;20028;-67
2020/12/27 03:33:05;;;;;;;2.63;1.42;;;;;;;;;;5074971;28;20056;-67
2020/12/27 03:35:31;;;;;;;2.92;1.38;;;;;;;;;;5074749;28;20031;-67
2020/12/27 03:37:57;;;;;;;1.85;1.10;;;;;;;;;;5074861;28;20021;-67
2020/12/27 03:40:24;;;;;;;2.53;1.05;;;;;;;;;;5074894;28;20112;-67
2020/12/27 03:42:50;;;;;;;2.60;1.40;;;;;;;;;;5074254;28;20036;-67
2020/12/27 03:45:16;;;;;;;2.22;1.15;;;;;;;;;;5074760;28;20024;-67
2020/12/27 03:47:42;;;;;;;1.90;1.20;;;;;;;;;;5074934;28;20060;-67
2020/12/27 03:50:08;;;;;;;1.52;1.10;;;;;;;;;;5074502;28;20033;-67
2020/12/27 03:52:34;;;;;;;1.73;1.00;;;;;;;;;;5074529;28;20035;-67
2020/12/27 03:55:01;;;;;;;2.38;1.00;;;;;;;;;;5074821;28;20013;-66
2020/12/27 03:57:27;;;;;;;1.88;1.20;;;;;;;;;;5074411;28;20043;-67
2020/12/27 03:59:53;;;;;;;3.20;1.15;;;;;;;;;;5074329;28;20025;-66
2020/12/27 04:02:19;;;;;;;4.63;1.10;;;;;;;;;;5074248;28;20520;-67
2020/12/27 04:04:46;;;;;;;4.68;1.00;;;;;;;;;;5074063;28;20027;-67
2020/12/27 04:07:12;;;;;;;1.83;0.85;;;;;;;;;;5074085;28;20125;-66
2020/12/27 04:09:38;;;;;;;1.83;0.90;;;;;;;;;;5074642;28;20048;-67
2020/12/27 04:12:04;;;;;;;3.45;0.90;;;;;;;;;;5074447;28;20507;-67
2020/12/27 04:14:30;;;;;;;2.17;1.00;;;;;;;;;;5074178;28;20021;-66
2020/12/27 04:16:57;;;;;;;3.40;0.90;;;;;;;;;;5074354;28;20032;-67
2020/12/27 04:19:23;;;;;;;1.52;0.80;;;;;;;;;;5074152;28;20441;-70
2020/12/27 04:21:49;;;;;;;3.38;0.80;;;;;;;;;;5073745;28;20048;-68
2020/12/27 04:24:16;;;;;;;1.02;0.60;;;;;;;;;;5073919;28;20381;-67
2020/12/27 04:26:42;;;;;;;1.67;0.88;;;;;;;;;;5074135;28;20028;-67
2020/12/27 04:29:08;;;;;;;1.65;0.60;;;;;;;;;;5073878;28;20025;-67
2020/12/27 04:31:34;;;;;;;1.50;0.70;;;;;;;;;;5073965;28;20481;-67
2020/12/27 04:34:00;;;;;;;2.10;0.70;;;;;;;;;;5073853;28;20088;-67
2020/12/27 04:36:26;;;;;;;1.50;0.70;;;;;;;;;;5073499;28;20017;-67
2020/12/27 04:38:52;;;;;;;2.05;0.80;;;;;;;;;;5074156;28;20028;-67
2020/12/27 04:41:19;;;;;;;2.17;0.80;;;;;;;;;;5073646;28;20520;-67
2020/12/27 04:43:46;;;;;;;1.25;0.65;;;;;;;;;;5073145;28;20689;-67
2020/12/27 04:46:13;;;;;;;1.98;0.70;;;;;;;;;;5073561;28;20033;-67
2020/12/27 04:48:40;;;;;;;1.73;0.80;;;;;;;;;;5073648;28;20032;-67
2020/12/27 04:51:07;;;;;;;1.63;0.90;;;;;;;;;;5073174;28;20551;-67
2020/12/27 04:53:34;;;;;;;1.95;0.90;;;;;;;;;;5073515;28;20043;-67
2020/12/27 04:56:01;;;;;;;1.83;1.00;;;;;;;;;;5073277;28;20020;-67
2020/12/27 04:58:28;;;;;;;1.60;0.88;;;;;;;;;;5055458;28;20408;-66
2020/12/27 05:00:55;;;;;;;3.20;0.90;;;;;;;;;;5073249;28;20103;-67
2020/12/27 05:03:21;;;;;;;1.65;0.88;;;;;;;;;;5073077;28;20032;-67
2020/12/27 05:05:50;;;;;;;2.70;1.13;;;;;;;;;;5072992;28;20036;-67
2020/12/27 05:08:17;;;;;;;5.82;1.10;;;;;;;;;;5073317;28;20384;-67
2020/12/27 05:10:43;;;;;;;2.17;0.80;;;;;;;;;;5055344;28;20032;-67
2020/12/27 05:13:10;;;;;;;5.20;0.90;;;;;;;;;;5072805;28;20078;-67
2020/12/27 05:15:36;;;;;;;1.85;0.80;;;;;;;;;;5072972;28;20438;-67
2020/12/27 05:18:04;;;;;;;7.90;2.20;;;;;;;;;;5072705;28;20458;-67
2020/12/27 05:20:32;;;;;;;4.05;1.20;;;;;;;;;;5072874;28;20468;-67
2020/12/27 05:23:02;;;;;;;1.65;0.98;;;;;;;;;;5072514;28;20048;-68
2020/12/27 05:25:35;;;;;;;2.35;1.13;;;;;;;;;;5072873;28;20019;-67
2020/12/27 05:28:02;;;;;;;6.10;1.02;;;;;;;;;;5072613;28;20028;-67
2020/12/27 05:30:29;;;;;;;2.25;0.82;;;;;;;;;;5072848;28;20028;-67
2020/12/27 05:32:55;;;;;;;2.95;0.75;;;;;;;;;;5072708;28;20032;-67
2020/12/27 05:35:24;;;;;;;2.22;0.80;;;;;;;;;;5072524;28;20512;-67
2020/12/27 05:37:51;;;;;;;4.70;0.77;;;;;;;;;;5072915;28;20025;-67
2020/12/27 05:40:17;;;;;;;2.17;0.93;;;;;;;;;;5072790;28;20021;-67
2020/12/27 05:42:44;;;;;;;563.13;193.65;;;;;;;;;;5072245;28;20043;-67
2020/12/27 05:45:20;;;;;;;59.47;21.65;;;;;;;;;;5072551;28;20016;-67
2020/12/27 05:47:47;;;;;;;73.20;32.20;;;;;;;;;;5072595;28;20052;-67
2020/12/27 05:50:14;;;;;;;28.48;14.82;;;;;;;;;;5072261;28;20024;-66
2020/12/27 05:52:44;;;;;;;25.20;11.48;;;;;;;;;;5072383;28;20025;-67
2020/12/27 05:55:16;;;;;;;7.40;3.80;;;;;;;;;;5072469;28;20035;-67
2020/12/27 05:57:43;;;;;;;7.03;3.00;;;;;;;;;;5072113;28;20505;-67
2020/12/27 06:00:10;;;;;;;2.50;1.35;;;;;;;;;;5072330;28;20114;-67
2020/12/27 06:02:41;;;;;;;3.47;1.10;;;;;;;;;;5072271;28;20036;-67
2020/12/27 06:05:11;;;;;;;6.80;2.40;;;;;;;;;;5072084;28;20060;-67
2020/12/27 06:07:44;;;;;;;7.55;2.42;;;;;;;;;;5072665;28;20389;-67
2020/12/27 06:10:22;;;;;;;4.22;2.13;;;;;;;;;;5072636;28;20135;-67
2020/12/27 06:12:57;;;;;;;4.78;2.03;;;;;;;;;;5071822;28;20028;-67
2020/12/27 06:15:25;;;;;;;6.85;4.03;;;;;;;;;;5072077;28;20021;-68
2020/12/27 06:17:51;;;;;;;14.93;8.70;;;;;;;;;;5072251;28;20021;-67
2020/12/27 06:20:18;;;;;;;7.90;3.33;;;;;;;;;;5071701;28;20474;-67
2020/12/27 06:22:47;;;;;;;63.65;33.22;;;;;;;;;;5071813;28;20057;-68
2020/12/27 06:25:13;;;;;;;30.67;17.67;;;;;;;;;;5072182;28;20382;-68
2020/12/27 06:27:39;;;;;;;11.23;6.20;;;;;;;;;;5072730;28;20034;-67
2020/12/27 06:30:09;;;;;;;2.80;1.48;;;;;;;;;;5076217;28;20100;-67
2020/12/27 06:32:40;;;;;;;2.10;1.25;;;;;;;;;;5076017;28;20039;-67
2020/12/27 06:35:07;;;;;;;3.90;2.13;;;;;;;;;;5075756;28;20050;-67
2020/12/27 06:37:40;;;;;;;3.55;2.17;;;;;;;;;;5076148;28;20047;-68
2020/12/27 06:40:06;;;;;;;7.85;2.95;;;;;;;;;;5076219;28;20371;-67
2020/12/27 06:42:32;;;;;;;5.97;3.63;;;;;;;;;;5075588;28;20036;-68
2020/12/27 06:44:58;;;;;;;11.85;6.20;;;;;;;;;;5075903;28;20051;-68
2020/12/27 06:47:51;;;;;;;4.95;2.80;;;;;;;;;;5075876;28;20511;-68
2020/12/27 06:50:19;;;;;;;2.75;1.65;;;;;;;;;;5072189;28;20025;-67
2020/12/27 06:52:45;;;;;;;3.65;1.48;;;;;;;;;;5075762;28;20039;-67
2020/12/27 06:55:11;;;;;;;7.93;3.47;;;;;;;;;;5075716;28;20098;-68
2020/12/27 06:57:40;;;;;;;4.30;1.77;;;;;;;;;;5075823;28;20546;-66
2020/12/27 07:00:25;;;;;;;2.38;1.17;;;;;;;;;;5075740;28;20028;-68
2020/12/27 07:03:11;;;;;;;3.58;1.98;;;;;;;;;;5057072;28;20094;-68
2020/12/27 07:05:40;;;;;;;2.17;1.20;;;;;;;;;;5076006;28;20477;-68
2020/12/27 07:08:07;;;;;;;4.10;1.30;;;;;;;;;;5075713;28;20059;-68
2020/12/27 07:10:34;;;;;;;4.82;1.90;;;;;;;;;;5075304;28;20016;-67
2020/12/27 07:13:01;;;;;;;1.95;1.10;;;;;;;;;;5075769;28;20036;-68
2020/12/27 07:15:28;;;;;;;8.68;4.20;;;;;;;;;;5076353;28;20028;-68
2020/12/27 07:17:55;;;;;;;6.30;3.28;;;;;;;;;;5076127;28;20031;-67
2020/12/27 07:20:22;;;;;;;5.78;3.20;;;;;;;;;;5076528;28;20480;-68
2020/12/27 07:22:54;;;;;;;7.38;4.30;;;;;;;;;;5075987;28;20057;-68
2020/12/27 07:25:23;;;;;;;7.07;3.50;;;;;;;;;;5076358;28;20024;-68
2020/12/27 07:27:49;;;;;;;3.67;1.75;;;;;;;;;;5076313;28;20017;-68
2020/12/27 07:30:16;;;;;;;4.22;2.03;;;;;;;;;;5075922;28;20033;-68
2020/12/27 07:32:48;;;;;;;13.07;7.30;;;;;;;;;;5076234;28;20071;-68
2020/12/27 07:35:14;;;;;;;;;;;;;;;;;;5076816;28;20024;-68
2020/12/27 07:37:43;;;;;;;16.80;6.47;;;;;;;;;;5075603;28;19961;-67
2020/12/27 07:40:10;;;;;;;10.48;2.88;;;;;;;;;;5085894;28;20054;-67
2020/12/27 07:42:37;;;;;;;13.35;5.70;;;;;;;;;;5084706;28;20128;-67
2020/12/27 07:45:13;;;;;;;12.82;5.05;;;;;;;;;;5075803;28;20080;-67
2020/12/27 07:47:42;;;;;;;12.52;5.28;;;;;;;;;;5075925;28;20032;-67
2020/12/27 07:50:08;;;;;;;10.07;5.22;;;;;;;;;;5075736;28;20029;-67
2020/12/27 07:53:01;;;;;;;11.35;4.25;;;;;;;;;;5075878;28;20025;-68
2020/12/27 07:55:27;;;;;;;;;;;;;;;;;;5072465;28;20044;-67
2020/12/27 07:57:53;;;;;;;7.43;4.30;;;;;;;;;;5075499;28;19991;-68
2020/12/27 08:00:23;;;;;;;6.82;4.35;;;;;;;;;;5075454;28;20143;-68
2020/12/27 08:02:50;;;;;;;10.50;5.15;;;;;;;;;;5075543;28;20036;-68
2020/12/27 08:05:16;;;;;;;17.08;8.23;;;;;;;;;;5075402;28;20024;-68
2020/12/27 08:07:43;;;;;;;7.95;4.43;;;;;;;;;;5075521;28;20033;-68
2020/12/27 08:10:13;;;;;;;12.35;6.43;;;;;;;;;;5057434;28;20385;-68
2020/12/27 08:12:39;;;;;;;5.82;3.63;;;;;;;;;;5075633;28;20047;-66
2020/12/27 08:15:08;;;;;;;3.67;2.17;;;;;;;;;;5081585;28;20039;-67
2020/12/27 08:17:34;;;;;;;7.78;2.90;;;;;;;;;;5084214;28;20412;-68
2020/12/27 08:20:02;;;;;;;8.07;3.00;;;;;;;;;;5077771;28;20033;-68
2020/12/27 08:22:28;;;;;;;4.60;2.97;;;;;;;;;;5081065;28;20041;-68
2020/12/27 08:24:54;;;;;;;6.70;2.95;;;;;;;;;;5086378;28;20032;-67
2020/12/27 08:27:20;;;;;;;5.65;3.00;;;;;;;;;;5080710;28;20497;-67
2020/12/27 08:29:46;;;;;;;5.65;2.65;;;;;;;;;;5083714;28;20780;-67
2020/12/27 08:32:12;;;;;;;8.73;2.90;;;;;;;;;;5081201;28;20059;-68
2020/12/27 08:34:45;;;;;;;6.00;2.80;;;;;;;;;;5081244;28;20412;-67
2020/12/27 08:37:17;;;;;;;4.47;2.70;;;;;;;;;;5077189;28;20056;-68
2020/12/27 08:39:49;;;;;;;4.82;2.90;;;;;;;;;;5087838;28;20023;-68
2020/12/27 08:42:22;;;;;;;5.40;2.72;;;;;;;;;;5084875;28;20043;-68
2020/12/27 08:45:06;;;;;;;4.47;2.78;;;;;;;;;;5074569;28;20021;-68
2020/12/27 08:47:44;;;;;;;4.72;2.28;;;;;;;;;;5074539;28;20070;-67
2020/12/27 08:50:14;;;;;;;3.92;2.40;;;;;;;;;;5074306;28;20024;-67
2020/12/27 08:52:41;;;;;;;4.93;2.33;;;;;;;;;;5073751;28;20028;-67
2020/12/27 08:55:10;;;;;;;8.73;4.45;;;;;;;;;;5057596;28;20025;-67
2020/12/27 08:57:39;;;;;;;16.70;5.85;;;;;;;;;;5094613;28;20038;-67
2020/12/27 09:00:06;;;;;;;38.22;14.35;;;;;;;;;;5094222;28;20491;-67
2020/12/27 09:02:33;;;;;;;15.32;6.70;;;;;;;;;;5094467;28;20063;-67
2020/12/27 09:05:00;;;;;;;16.15;10.35;;;;;;;;;;5094437;28;20575;-67
2020/12/27 09:07:36;;;;;;;6.75;2.60;;;;;;;;;;5094875;28;20385;-67
2020/12/27 09:10:06;;;;;;;5.47;2.58;;;;;;;;;;5094494;28;20024;-67
2020/12/27 09:12:32;;;;;;;11.48;2.88;;;;;;;;;;5081276;28;20358;-67
2020/12/27 09:14:58;;;;;;;8.02;3.05;;;;;;;;;;5074168;28;20021;-67
2020/12/27 09:17:26;;;;;;;3.85;2.42;;;;;;;;;;5073957;28;20028;-67
2020/12/27 09:19:54;;;;;;;4.35;2.15;;;;;;;;;;5073747;28;20054;-68
2020/12/27 09:22:21;;;;;;;5.60;2.28;;;;;;;;;;5085399;28;20052;-67
2020/12/27 09:25:03;;;;;;;6.20;2.63;;;;;;;;;;5084341;28;20060;-66
2020/12/27 09:27:29;;;;;;;;;;;;;;;;;;5081030;28;20484;-67
2020/12/27 09:30:02;;;;;;;4.70;2.47;;;;;;;;;;5076408;28;19908;-67
2020/12/27 09:32:35;;;;;;;5.50;2.60;;;;;;;;;;5055534;28;20024;-67
2020/12/27 09:35:01;;;;;;;6.85;2.58;;;;;;;;;;5075000;28;20027;-66
2020/12/27 09:37:32;;;;;;;7.03;3.80;;;;;;;;;;5080396;28;20028;-67
2020/12/27 09:39:59;;;;;;;5.25;3.13;;;;;;;;;;5084057;28;20029;-67
2020/12/27 09:42:26;;;;;;;6.78;2.97;;;;;;;;;;5090665;28;20040;-67
2020/12/27 09:44:52;;;;;;;7.03;3.40;;;;;;;;;;5093578;28;20028;-67
2020/12/27 09:47:26;;;;;;;6.40;3.08;;;;;;;;;;5094186;28;20031;-67
2020/12/27 09:50:08;;;;;;;11.95;3.63;;;;;;;;;;5075659;28;20034;-67
2020/12/27 09:52:47;;;;;;;12.02;3.70;;;;;;;;;;5093529;28;20081;-67
2020/12/27 09:55:14;;;;;;;8.90;4.47;;;;;;;;;;5093535;28;20083;-67
2020/12/27 09:57:43;;;;;;;4.97;3.13;;;;;;;;;;5093800;28;20423;-68
2020/12/27 10:00:09;;;;;;;8.88;4.20;;;;;;;;;;5093379;28;20024;-67
2020/12/27 10:02:35;;;;;;;6.60;3.63;;;;;;;;;;5093061;28;20040;-67
2020/12/27 10:05:02;;;;;;;8.93;3.70;;;;;;;;;;5093652;28;20076;-69
2020/12/27 10:07:28;;;;;;;7.43;3.90;;;;;;;;;;5093503;28;20099;-69
2020/12/27 10:09:54;;;;;;;9.23;4.15;;;;;;;;;;5093686;28;20020;-68
2020/12/27 10:12:21;;;;;;;9.57;4.90;;;;;;;;;;5093348;28;20388;-69
2020/12/27 10:14:47;;;;;;;8.10;4.40;;;;;;;;;;5075116;28;20430;-68
2020/12/27 10:17:13;;;;;;;10.15;5.22;;;;;;;;;;5092936;28;20032;-67
2020/12/27 10:19:39;;;;;;;8.80;5.05;;;;;;;;;;5078829;22;20042;-74
2020/12/27 10:22:05;;;;;;;11.35;5.22;;;;;;;;;;5030944;28;20139;-75
2020/12/27 10:24:33;;;;;;;7.28;4.72;;;;;;;;;;5031095;28;20524;-75
2020/12/27 10:27:03;;;;;;;9.95;5.50;;;;;;;;;;5013412;28;20030;-75
2020/12/27 10:29:30;;;;;;;8.05;4.13;;;;;;;;;;5013183;28;20029;-75
2020/12/27 10:31:57;;;;;;;7.90;5.28;;;;;;;;;;5013083;28;20041;-74
2020/12/27 10:34:24;;;;;;;14.57;4.93;;;;;;;;;;5019803;28;20037;-73
2020/12/27 10:36:51;;;;;;;6.47;4.18;;;;;;;;;;5029974;28;20033;-75
2020/12/27 10:39:17;;;;;;;11.20;4.95;;;;;;;;;;5030462;28;20030;-73
2020/12/27 10:41:43;;;;;;;11.13;5.57;;;;;;;;;;5015519;28;20041;-75
2020/12/27 10:44:10;;;;;;;8.70;4.55;;;;;;;;;;5013242;28;20030;-74
2020/12/27 10:46:36;;;;;;;9.40;4.75;;;;;;;;;;5031197;28;20115;-74
2020/12/27 10:49:03;;;;;;;10.30;5.50;;;;;;;;;;5032847;28;20026;-73
2020/12/27 10:51:34;;;;;;;21.40;9.27;;;;;;;;;;5032510;28;20032;-72
2020/12/27 10:54:00;;;;;;;11.57;5.97;;;;;;;;;;5020069;28;20069;-73
2020/12/27 10:56:26;;;;;;;9.48;5.25;;;;;;;;;;5013128;28;20386;-73
2020/12/27 10:58:52;;;;;;;11.38;6.20;;;;;;;;;;5013126;28;20055;-72
2020/12/27 11:01:18;;;;;;;8.02;4.18;;;;;;;;;;5012729;28;20541;-72
2020/12/27 11:03:44;;;;;;;9.18;4.95;;;;;;;;;;5012866;28;20073;-73
2020/12/27 11:06:10;;;;;;;7.57;4.25;;;;;;;;;;5013012;28;20026;-73
2020/12/27 11:08:37;;;;;;;7.78;4.22;;;;;;;;;;5012950;28;20096;-72
2020/12/27 11:11:03;;;;;;;6.18;3.42;;;;;;;;;;5012817;28;20029;-73
2020/12/27 11:13:29;;;;;;;4.97;3.67;;;;;;;;;;5038295;28;20032;-73
2020/12/27 11:15:55;;;;;;;9.25;4.07;;;;;;;;;;5055162;28;20027;-73
2020/12/27 11:18:21;;;;;;;10.82;4.90;;;;;;;;;;5056297;28;20067;-73
2020/12/27 11:20:47;;;;;;;5.25;3.47;;;;;;;;;;5055725;28;20073;-73
2020/12/27 11:23:13;;;;;;;11.38;5.85;;;;;;;;;;5055742;28;20095;-73
2020/12/27 11:25:39;;;;;;;5.65;4.05;;;;;;;;;;5056013;28;20028;-73
2020/12/27 11:28:05;;;;;;;5.80;3.75;;;;;;;;;;5055771;28;20033;-73
2020/12/27 11:30:32;;;;;;;8.77;4.97;;;;;;;;;;5055978;28;20032;-72
2020/12/27 11:32:58;;;;;;;10.05;4.50;;;;;;;;;;5051242;28;20025;-72
2020/12/27 11:35:24;;;;;;;6.07;3.92;;;;;;;;;;5036191;28;20449;-72
2020/12/27 11:37:51;;;;;;;13.80;7.18;;;;;;;;;;5035717;28;20030;-72
2020/12/27 11:40:17;;;;;;;26.60;11.65;;;;;;;;;;5035927;28;20022;-80
2020/12/27 11:42:43;;;;;;;49.58;16.50;;;;;;;;;;5035752;28;20049;-80
2020/12/27 11:45:10;;;;;;;8.52;5.25;;;;;;;;;;5035642;28;20018;-79
2020/12/27 11:47:36;;;;;;;9.40;4.82;;;;;;;;;;5035481;28;20489;-80
2020/12/27 11:50:03;;;;;;;11.65;4.82;;;;;;;;;;5035547;28;20105;-79
2020/12/27 11:52:29;;;;;;;9.25;4.47;;;;;;;;;;5035377;28;20053;-79
2020/12/27 11:54:55;;;;;;;5.68;3.35;;;;;;;;;;5035587;28;20061;-80
2020/12/27 11:57:21;;;;;;;6.50;3.85;;;;;;;;;;5035371;28;20097;-79
2020/12/27 11:59:47;;;;;;;8.82;4.47;;;;;;;;;;5035305;28;20056;-73
2020/12/27 12:02:13;;;;;;;7.38;4.30;;;;;;;;;;5035003;28;20044;-72
2020/12/27 12:04:40;;;;;;;5.20;3.30;;;;;;;;;;5035361;28;20386;-71
2020/12/27 12:07:06;;;;;;;6.65;3.60;;;;;;;;;;5044727;28;20032;-72
2020/12/27 12:09:32;;;;;;;5.18;3.17;;;;;;;;;;5055080;28;20611;-72
2020/12/27 12:11:58;;;;;;;5.28;3.65;;;;;;;;;;5055134;28;20021;-72
2020/12/27 12:14:24;;;;;;;6.40;4.35;;;;;;;;;;5055023;28;20106;-72
2020/12/27 12:16:54;;;;;;;4.97;3.28;;;;;;;;;;5039619;28;20084;-72
2020/12/27 12:19:20;;;;;;;6.47;3.45;;;;;;;;;;5040384;28;20520;-72
2020/12/27 12:21:50;;;;;;;6.85;4.15;;;;;;;;;;5055101;28;20366;-72
2020/12/27 12:24:16;;;;;;;7.57;4.10;;;;;;;;;;5054954;28;20458;-72
2020/12/27 12:26:43;;;;;;;15.52;7.85;;;;;;;;;;5054607;28;20166;-72
2020/12/27 12:29:09;;;;;;;11.38;4.80;;;;;;;;;;5054951;28;20141;-72
2020/12/27 12:31:36;;;;;;;10.32;5.57;;;;;;;;;;5054847;28;20021;-72
2020/12/27 12:34:02;;;;;;;6.35;3.85;;;;;;;;;;5054539;28;20025;-72
2020/12/27 12:36:29;;;;;;;7.25;4.88;;;;;;;;;;5036815;28;20112;-72
2020/12/27 12:38:55;;;;;;;13.13;6.93;;;;;;;;;;5054500;28;20125;-72
2020/12/27 12:41:26;;;;;;;24.77;18.05;;;;;;;;;;5042660;28;20478;-72
2020/12/27 12:43:52;;;;;;;23.42;15.20;;;;;;;;;;5034791;28;20036;-72
2020/12/27 12:46:19;;;;;;;22.70;13.50;;;;;;;;;;5034177;28;20033;-72
2020/12/27 12:48:45;;;;;;;10.32;5.55;;;;;;;;;;5034611;28;20382;-72
2020/12/27 12:51:12;;;;;;;13.20;8.38;;;;;;;;;;5034388;28;20025;-72
2020/12/27 12:53:40;;;;;;;14.38;4.25;;;;;;;;;;5034419;28;20018;-72
2020/12/27 12:56:10;;;;;;;11.65;6.15;;;;;;;;;;5034654;28;20061;-72
2020/12/27 12:58:36;;;;;;;8.20;5.28;;;;;;;;;;5034240;28;20479;-72
2020/12/27 13:01:03;;;;;;;15.77;9.18;;;;;;;;;;5034465;28;20390;-72
2020/12/27 13:03:29;;;;;;;11.32;6.07;;;;;;;;;;5034260;28;20037;-72
2020/12/27 13:05:55;;;;;;;7.35;5.15;;;;;;;;;;5033854;28;20497;-72
2020/12/27 13:08:21;;;;;;;6.85;4.07;;;;;;;;;;5033885;28;20025;-72
2020/12/27 13:10:49;;;;;;;7.20;4.30;;;;;;;;;;5035433;28;20466;-72
2020/12/27 13:13:16;;;;;;;8.43;4.30;;;;;;;;;;5053658;28;20025;-72
2020/12/27 13:15:42;;;;;;;9.32;5.82;;;;;;;;;;5041520;28;20029;-73
2020/12/27 13:18:08;;;;;;;6.28;3.38;;;;;;;;;;5053723;28;20492;-73
2020/12/27 13:20:34;;;;;;;6.85;4.05;;;;;;;;;;5053717;28;20085;-73
2020/12/27 13:23:00;;;;;;;9.27;4.05;;;;;;;;;;5054502;28;20457;-73
2020/12/27 13:25:26;;;;;;;4.50;2.63;;;;;;;;;;5054114;28;20389;-73
2020/12/27 13:27:52;;;;;;;6.63;3.70;;;;;;;;;;5053776;28;20481;-72
2020/12/27 13:30:19;;;;;;;6.45;3.55;;;;;;;;;;5053788;28;20029;-72
2020/12/27 13:32:45;;;;;;;6.85;4.55;;;;;;;;;;5039253;28;20117;-72
2020/12/27 13:35:12;;;;;;;9.48;5.20;;;;;;;;;;5033642;28;20060;-72
2020/12/27 13:37:38;;;;;;;8.88;4.28;;;;;;;;;;5033165;28;20033;-73
2020/12/27 13:40:07;;;;;;;10.18;4.30;;;;;;;;;;5033462;28;20025;-72
2020/12/27 13:42:34;;;;;;;9.07;4.57;;;;;;;;;;5033279;28;20065;-73
2020/12/27 13:45:00;;;;;;;6.72;3.85;;;;;;;;;;5033710;28;20475;-71
2020/12/27 13:47:26;;;;;;;7.72;4.43;;;;;;;;;;5033460;28;20028;-73
2020/12/27 13:49:52;;;;;;;13.55;7.72;;;;;;;;;;5033666;28;20031;-72
2020/12/27 13:52:18;;;;;;;9.38;6.43;;;;;;;;;;5033410;28;20457;-73
2020/12/27 13:54:45;;;;;;;10.75;6.32;;;;;;;;;;5033537;28;20099;-72
2020/12/27 13:57:11;;;;;;;10.48;4.93;;;;;;;;;;5015357;28;20387;-73
2020/12/27 13:59:37;;;;;;;7.38;3.78;;;;;;;;;;5033456;28;20125;-73
2020/12/27 14:02:03;;;;;;;5.88;3.65;;;;;;;;;;5033158;28;20116;-73
2020/12/27 14:04:29;;;;;;;6.35;3.97;;;;;;;;;;5033469;28;20032;-73
2020/12/27 14:06:57;;;;;;;8.52;4.13;;;;;;;;;;5033441;28;20033;-73
2020/12/27 14:09:23;;;;;;;7.53;4.18;;;;;;;;;;5033146;28;20482;-73
2020/12/27 14:11:49;;;;;;;12.68;7.30;;;;;;;;;;5033193;28;20022;-73
2020/12/27 14:14:15;;;;;;;7.75;4.93;;;;;;;;;;5033137;28;20398;-73
2020/12/27 14:16:42;;;;;;;8.02;4.65;;;;;;;;;;5033135;28;20049;-72
2020/12/27 14:19:08;;;;;;;7.90;4.03;;;;;;;;;;5032970;28;20104;-72
2020/12/27 14:21:35;;;;;;;8.75;3.67;;;;;;;;;;5033588;28;20402;-72
2020/12/27 14:24:01;;;;;;;7.60;4.35;;;;;;;;;;5040687;28;20025;-72
2020/12/27 14:26:34;;;;;;;7.45;4.25;;;;;;;;;;5036459;28;20597;-72
2020/12/27 14:29:00;;;;;;;7.22;3.60;;;;;;;;;;5032591;28;20026;-72
2020/12/27 14:31:26;;;;;;;6.70;3.72;;;;;;;;;;5032553;28;20029;-72
2020/12/27 14:33:53;;;;;;;9.30;3.95;;;;;;;;;;5031764;28;20033;-72
2020/12/27 14:36:20;;;;;;;9.32;4.15;;;;;;;;;;5026778;28;20029;-72
2020/12/27 14:38:46;;;;;;;10.95;4.97;;;;;;;;;;5039175;28;20038;-72
2020/12/27 14:41:14;;;;;;;8.93;4.93;;;;;;;;;;5030123;28;20021;-73
2020/12/27 14:43:40;;;;;;;7.20;4.45;;;;;;;;;;5030928;28;20156;-73